sensor_id;sensor_type;location;lat;lon;timestamp;pressure;altitude;pressure_sealevel;temperature;humidity
64711;BME280;51139;45.626;6.850;2022-11-13T00:01:50;82693.69;;;7.85;35.21
64711;BME280;51139;45.626;6.850;2022-11-13T00:04:16;82696.47;;;7.79;35.48
64711;BME280;51139;45.626;6.850;2022-11-13T00:06:41;82688.03;;;7.81;35.62
64711;BME280;51139;45.626;6.850;2022-11-13T00:09:10;82693.13;;;7.79;36.29
64711;BME280;51139;45.626;6.850;2022-11-13T00:11:35;82689.81;;;7.78;35.79
64711;BME280;51139;45.626;6.850;2022-11-13T00:14:01;82687.47;;;7.74;36.24
64711;BME280;51139;45.626;6.850;2022-11-13T00:16:26;82688.47;;;7.64;35.03
64711;BME280;51139;45.626;6.850;2022-11-13T00:18:52;82685.88;;;7.71;34.91
64711;BME280;51139;45.626;6.850;2022-11-13T00:21:20;82688.56;;;7.50;35.75
64711;BME280;51139;45.626;6.850;2022-11-13T00:23:46;82690.31;;;7.48;35.49
64711;BME280;51139;45.626;6.850;2022-11-13T00:26:17;82688.81;;;7.39;36.03
64711;BME280;51139;45.626;6.850;2022-11-13T00:28:43;82688.03;;;7.52;35.52
64711;BME280;51139;45.626;6.850;2022-11-13T00:31:11;82679.44;;;7.51;35.85
64711;BME280;51139;45.626;6.850;2022-11-13T00:33:36;82677.94;;;7.64;35.32
64711;BME280;51139;45.626;6.850;2022-11-13T00:36:07;82671.13;;;7.47;36.22
64711;BME280;51139;45.626;6.850;2022-11-13T00:38:33;82681.28;;;7.43;36.24
64711;BME280;51139;45.626;6.850;2022-11-13T00:40:59;82684.22;;;7.32;35.78
64711;BME280;51139;45.626;6.850;2022-11-13T00:43:25;82680.31;;;7.25;36.36
64711;BME280;51139;45.626;6.850;2022-11-13T00:45:50;82679.19;;;7.41;35.74
64711;BME280;51139;45.626;6.850;2022-11-13T00:48:16;82684.13;;;7.45;35.15
64711;BME280;51139;45.626;6.850;2022-11-13T00:50:41;82672.59;;;7.56;33.90
64711;BME280;51139;45.626;6.850;2022-11-13T00:53:07;82673.91;;;7.70;33.53
64711;BME280;51139;45.626;6.850;2022-11-13T00:55:32;82664.56;;;7.62;32.91
64711;BME280;51139;45.626;6.850;2022-11-13T00:57:57;82668.72;;;8.23;28.25
64711;BME280;51139;45.626;6.850;2022-11-13T01:00:23;82666.22;;;8.09;30.16
64711;BME280;51139;45.626;6.850;2022-11-13T01:02:48;82666.31;;;7.96;31.04
64711;BME280;51139;45.626;6.850;2022-11-13T01:05:13;82665.88;;;7.76;31.02
64711;BME280;51139;45.626;6.850;2022-11-13T01:07:39;82661.44;;;7.71;31.76
64711;BME280;51139;45.626;6.850;2022-11-13T01:10:05;82662.69;;;7.70;31.29
64711;BME280;51139;45.626;6.850;2022-11-13T01:12:31;82654.66;;;7.83;31.34
64711;BME280;51139;45.626;6.850;2022-11-13T01:14:56;82647.41;;;7.76;31.21
64711;BME280;51139;45.626;6.850;2022-11-13T01:17:22;82641.97;;;7.74;29.90
64711;BME280;51139;45.626;6.850;2022-11-13T01:19:47;82632.78;;;7.67;31.07
64711;BME280;51139;45.626;6.850;2022-11-13T01:22:13;82638.00;;;7.59;31.26
64711;BME280;51139;45.626;6.850;2022-11-13T01:24:38;82631.16;;;7.56;31.13
64711;BME280;51139;45.626;6.850;2022-11-13T01:27:03;82633.06;;;7.56;31.97
64711;BME280;51139;45.626;6.850;2022-11-13T01:29:29;82625.03;;;7.62;31.49
64711;BME280;51139;45.626;6.850;2022-11-13T01:31:54;82624.28;;;7.53;32.38
64711;BME280;51139;45.626;6.850;2022-11-13T01:34:20;82622.28;;;7.46;32.84
64711;BME280;51139;45.626;6.850;2022-11-13T01:36:45;82618.00;;;7.35;32.71
64711;BME280;51139;45.626;6.850;2022-11-13T01:39:11;82612.69;;;7.27;33.70
64711;BME280;51139;45.626;6.850;2022-11-13T01:41:37;82608.97;;;7.23;33.26
64711;BME280;51139;45.626;6.850;2022-11-13T01:44:03;82600.06;;;7.34;33.60
64711;BME280;51139;45.626;6.850;2022-11-13T01:46:36;82597.78;;;7.30;33.19
64711;BME280;51139;45.626;6.850;2022-11-13T01:51:40;82594.22;;;7.27;33.81
64711;BME280;51139;45.626;6.850;2022-11-13T01:54:10;82585.09;;;7.28;34.33
64711;BME280;51139;45.626;6.850;2022-11-13T01:56:37;82584.63;;;7.38;33.74
64711;BME280;51139;45.626;6.850;2022-11-13T01:59:09;82572.31;;;7.33;34.06
64711;BME280;51139;45.626;6.850;2022-11-13T02:01:36;82567.75;;;7.33;34.98
64711;BME280;51139;45.626;6.850;2022-11-13T02:04:01;82568.81;;;7.38;33.65
64711;BME280;51139;45.626;6.850;2022-11-13T02:06:33;82573.09;;;7.49;32.63
64711;BME280;51139;45.626;6.850;2022-11-13T02:09:01;82566.34;;;7.77;31.38
64711;BME280;51139;45.626;6.850;2022-11-13T02:11:26;82559.47;;;7.66;32.37
64711;BME280;51139;45.626;6.850;2022-11-13T02:13:52;82558.94;;;7.59;32.98
64711;BME280;51139;45.626;6.850;2022-11-13T02:16:18;82558.94;;;7.59;32.71
64711;BME280;51139;45.626;6.850;2022-11-13T02:18:45;82556.34;;;7.83;31.77
64711;BME280;51139;45.626;6.850;2022-11-13T02:26:24;82546.47;;;7.68;33.13
64711;BME280;51139;45.626;6.850;2022-11-13T02:28:50;82546.28;;;7.66;33.37
64711;BME280;51139;45.626;6.850;2022-11-13T02:31:15;82544.34;;;7.58;33.64
64711;BME280;51139;45.626;6.850;2022-11-13T02:33:41;82542.06;;;7.63;34.29
64711;BME280;51139;45.626;6.850;2022-11-13T02:36:08;82536.78;;;7.63;34.05
64711;BME280;51139;45.626;6.850;2022-11-13T02:38:36;82539.75;;;7.59;33.93
64711;BME280;51139;45.626;6.850;2022-11-13T02:41:02;82536.97;;;7.65;33.54
64711;BME280;51139;45.626;6.850;2022-11-13T02:43:28;82530.09;;;7.62;33.64
64711;BME280;51139;45.626;6.850;2022-11-13T02:45:53;82528.34;;;7.64;33.57
64711;BME280;51139;45.626;6.850;2022-11-13T02:48:19;82524.13;;;7.61;33.23
64711;BME280;51139;45.626;6.850;2022-11-13T02:50:44;82523.59;;;7.63;33.19
64711;BME280;51139;45.626;6.850;2022-11-13T02:53:10;82526.97;;;7.71;33.56
64711;BME280;51139;45.626;6.850;2022-11-13T02:55:35;82523.47;;;7.76;33.52
64711;BME280;51139;45.626;6.850;2022-11-13T02:58:00;82519.94;;;7.73;33.45
64711;BME280;51139;45.626;6.850;2022-11-13T03:00:26;82519.75;;;7.64;34.16
64711;BME280;51139;45.626;6.850;2022-11-13T03:02:51;82516.22;;;7.61;33.70
64711;BME280;51139;45.626;6.850;2022-11-13T03:05:17;82515.88;;;7.65;33.34
64711;BME280;51139;45.626;6.850;2022-11-13T03:07:42;82514.09;;;7.59;33.62
64711;BME280;51139;45.626;6.850;2022-11-13T03:10:09;82509.69;;;7.54;34.26
64711;BME280;51139;45.626;6.850;2022-11-13T03:12:35;82515.50;;;7.61;33.17
64711;BME280;51139;45.626;6.850;2022-11-13T03:15:00;82514.97;;;7.62;33.34
64711;BME280;51139;45.626;6.850;2022-11-13T03:17:25;82514.28;;;7.62;33.29
64711;BME280;51139;45.626;6.850;2022-11-13T03:19:51;82509.53;;;7.60;33.00
64711;BME280;51139;45.626;6.850;2022-11-13T03:22:16;82501.66;;;7.76;33.82
64711;BME280;51139;45.626;6.850;2022-11-13T03:24:41;82500.97;;;7.75;33.19
64711;BME280;51139;45.626;6.850;2022-11-13T03:27:07;82490.38;;;7.67;33.61
64711;BME280;51139;45.626;6.850;2022-11-13T03:29:32;82494.63;;;7.70;33.21
64711;BME280;51139;45.626;6.850;2022-11-13T03:31:57;82493.78;;;7.83;32.31
64711;BME280;51139;45.626;6.850;2022-11-13T03:34:23;82491.16;;;7.83;32.96
64711;BME280;51139;45.626;6.850;2022-11-13T03:36:48;82488.16;;;7.79;33.78
64711;BME280;51139;45.626;6.850;2022-11-13T03:39:13;82482.16;;;7.71;33.94
64711;BME280;51139;45.626;6.850;2022-11-13T03:41:39;82484.25;;;7.65;34.33
64711;BME280;51139;45.626;6.850;2022-11-13T03:44:05;82477.88;;;7.60;33.82
64711;BME280;51139;45.626;6.850;2022-11-13T03:46:30;82484.25;;;7.65;33.66
64711;BME280;51139;45.626;6.850;2022-11-13T03:48:55;82482.47;;;7.59;33.96
64711;BME280;51139;45.626;6.850;2022-11-13T03:51:21;82471.38;;;7.53;33.36
64711;BME280;51139;45.626;6.850;2022-11-13T03:53:46;82478.94;;;7.57;33.87
64711;BME280;51139;45.626;6.850;2022-11-13T03:56:11;82477.00;;;7.57;34.10
64711;BME280;51139;45.626;6.850;2022-11-13T03:58:37;82477.19;;;7.59;33.15
64711;BME280;51139;45.626;6.850;2022-11-13T04:01:02;82469.84;;;7.73;32.28
64711;BME280;51139;45.626;6.850;2022-11-13T04:03:27;82463.72;;;7.86;32.57
64711;BME280;51139;45.626;6.850;2022-11-13T04:05:53;82456.50;;;7.87;31.13
64711;BME280;51139;45.626;6.850;2022-11-13T04:08:18;82459.47;;;7.76;32.81
64711;BME280;51139;45.626;6.850;2022-11-13T04:10:44;82460.34;;;7.70;33.00
64711;BME280;51139;45.626;6.850;2022-11-13T04:13:10;82453.09;;;7.55;33.51
64711;BME280;51139;45.626;6.850;2022-11-13T04:15:36;82458.31;;;7.40;33.50
64711;BME280;51139;45.626;6.850;2022-11-13T04:18:02;82450.94;;;7.46;32.57
64711;BME280;51139;45.626;6.850;2022-11-13T04:20:27;82444.78;;;7.36;34.34
64711;BME280;51139;45.626;6.850;2022-11-13T04:22:55;82448.44;;;7.25;33.73
64711;BME280;51139;45.626;6.850;2022-11-13T04:25:20;82443.84;;;7.18;34.17
64711;BME280;51139;45.626;6.850;2022-11-13T04:27:48;82437.84;;;7.09;33.93
64711;BME280;51139;45.626;6.850;2022-11-13T04:30:13;82436.47;;;7.24;33.21
64711;BME280;51139;45.626;6.850;2022-11-13T04:32:39;82436.63;;;7.18;34.03
64711;BME280;51139;45.626;6.850;2022-11-13T04:35:05;82433.00;;;7.29;32.48
64711;BME280;51139;45.626;6.850;2022-11-13T04:37:30;82428.75;;;7.26;33.14
64711;BME280;51139;45.626;6.850;2022-11-13T04:39:56;82428.91;;;7.12;34.03
64711;BME280;51139;45.626;6.850;2022-11-13T04:42:21;82433.31;;;7.18;32.86
64711;BME280;51139;45.626;6.850;2022-11-13T04:45:05;82427.31;;;7.09;33.65
64711;BME280;51139;45.626;6.850;2022-11-13T04:47:31;82433.94;;;7.03;34.16
64711;BME280;51139;45.626;6.850;2022-11-13T04:49:56;82426.06;;;7.10;34.05
64711;BME280;51139;45.626;6.850;2022-11-13T04:52:21;82423.38;;;7.47;33.21
64711;BME280;51139;45.626;6.850;2022-11-13T04:54:47;82421.72;;;7.21;33.38
64711;BME280;51139;45.626;6.850;2022-11-13T04:57:12;82420.63;;;7.16;34.05
64711;BME280;51139;45.626;6.850;2022-11-13T04:59:37;82420.94;;;7.05;34.48
64711;BME280;51139;45.626;6.850;2022-11-13T05:02:03;82415.34;;;7.08;34.05
64711;BME280;51139;45.626;6.850;2022-11-13T05:04:28;82406.28;;;7.33;34.41
64711;BME280;51139;45.626;6.850;2022-11-13T05:06:54;82417.00;;;7.35;33.02
64711;BME280;51139;45.626;6.850;2022-11-13T05:09:19;82404.50;;;7.27;34.52
64711;BME280;51139;45.626;6.850;2022-11-13T05:11:44;82412.03;;;7.15;34.68
64711;BME280;51139;45.626;6.850;2022-11-13T05:14:11;82408.31;;;7.11;34.67
64711;BME280;51139;45.626;6.850;2022-11-13T05:16:36;82408.00;;;7.14;34.62
64711;BME280;51139;45.626;6.850;2022-11-13T05:19:02;82392.00;;;7.12;34.61
64711;BME280;51139;45.626;6.850;2022-11-13T05:21:32;82396.53;;;7.04;35.14
64711;BME280;51139;45.626;6.850;2022-11-13T05:23:58;82394.47;;;7.10;34.24
64711;BME280;51139;45.626;6.850;2022-11-13T05:26:23;82396.94;;;7.16;34.39
64711;BME280;51139;45.626;6.850;2022-11-13T05:28:50;82397.97;;;7.13;34.93
64711;BME280;51139;45.626;6.850;2022-11-13T05:31:15;82396.06;;;7.13;34.13
64711;BME280;51139;45.626;6.850;2022-11-13T05:33:42;82402.19;;;7.16;33.04
64711;BME280;51139;45.626;6.850;2022-11-13T05:36:09;82396.25;;;7.23;33.18
64711;BME280;51139;45.626;6.850;2022-11-13T05:38:35;82389.94;;;7.26;33.37
64711;BME280;51139;45.626;6.850;2022-11-13T05:41:14;82388.34;;;7.23;32.77
64711;BME280;51139;45.626;6.850;2022-11-13T05:43:40;82378.66;;;7.18;33.62
64711;BME280;51139;45.626;6.850;2022-11-13T05:48:32;82375.53;;;7.20;33.91
64711;BME280;51139;45.626;6.850;2022-11-13T05:51:15;82378.16;;;7.20;34.73
64711;BME280;51139;45.626;6.850;2022-11-13T05:53:41;82374.66;;;7.25;34.11
64711;BME280;51139;45.626;6.850;2022-11-13T05:56:10;82371.34;;;7.40;32.83
64711;BME280;51139;45.626;6.850;2022-11-13T05:58:36;82371.47;;;7.19;34.47
64711;BME280;51139;45.626;6.850;2022-11-13T06:03:33;82365.53;;;7.26;34.28
64711;BME280;51139;45.626;6.850;2022-11-13T06:05:58;82364.63;;;7.23;34.56
64711;BME280;51139;45.626;6.850;2022-11-13T06:08:24;82361.50;;;7.33;34.16
64711;BME280;51139;45.626;6.850;2022-11-13T06:10:50;82355.69;;;7.26;34.12
64711;BME280;51139;45.626;6.850;2022-11-13T06:13:15;82353.41;;;7.30;35.11
64711;BME280;51139;45.626;6.850;2022-11-13T06:15:40;82345.50;;;7.23;35.21
64711;BME280;51139;45.626;6.850;2022-11-13T06:18:06;82351.47;;;7.31;34.12
64711;BME280;51139;45.626;6.850;2022-11-13T06:20:35;82345.53;;;7.38;33.27
64711;BME280;51139;45.626;6.850;2022-11-13T06:23:00;82348.16;;;7.38;34.71
64711;BME280;51139;45.626;6.850;2022-11-13T06:25:26;82343.03;;;7.33;34.07
64711;BME280;51139;45.626;6.850;2022-11-13T06:27:52;82346.91;;;7.32;34.26
64711;BME280;51139;45.626;6.850;2022-11-13T06:30:17;82343.94;;;7.35;34.53
64711;BME280;51139;45.626;6.850;2022-11-13T06:32:43;82343.03;;;7.33;35.04
64711;BME280;51139;45.626;6.850;2022-11-13T06:35:08;82343.03;;;7.33;34.48
64711;BME280;51139;45.626;6.850;2022-11-13T06:37:34;82336.00;;;7.27;35.07
64711;BME280;51139;45.626;6.850;2022-11-13T06:39:59;82331.44;;;7.36;33.51
64711;BME280;51139;45.626;6.850;2022-11-13T06:42:24;82327.94;;;7.41;34.10
64711;BME280;51139;45.626;6.850;2022-11-13T06:44:50;82329.34;;;7.34;34.69
64711;BME280;51139;45.626;6.850;2022-11-13T06:47:16;82334.09;;;7.28;34.34
64711;BME280;51139;45.626;6.850;2022-11-13T06:49:41;82323.88;;;7.24;35.54
64711;BME280;51139;45.626;6.850;2022-11-13T06:52:06;82328.63;;;7.34;34.38
64711;BME280;51139;45.626;6.850;2022-11-13T06:54:32;82323.38;;;7.41;33.15
64711;BME280;51139;45.626;6.850;2022-11-13T06:56:57;82321.09;;;7.45;33.01
64711;BME280;51139;45.626;6.850;2022-11-13T06:59:22;82327.75;;;7.39;34.26
64711;BME280;51139;45.626;6.850;2022-11-13T07:01:50;82325.84;;;7.39;34.29
64711;BME280;51139;45.626;6.850;2022-11-13T07:04:15;82327.75;;;7.39;34.76
64711;BME280;51139;45.626;6.850;2022-11-13T07:06:40;82325.84;;;7.39;34.08
64711;BME280;51139;45.626;6.850;2022-11-13T07:09:06;82323.59;;;7.51;33.12
64711;BME280;51139;45.626;6.850;2022-11-13T07:11:31;82326.41;;;7.53;33.96
64711;BME280;51139;45.626;6.850;2022-11-13T07:13:57;82333.44;;;7.58;35.06
64711;BME280;51139;45.626;6.850;2022-11-13T07:16:22;82327.97;;;7.80;33.19
64711;BME280;51139;45.626;6.850;2022-11-13T07:18:51;82328.50;;;7.86;35.22
64711;BME280;51139;45.626;6.850;2022-11-13T07:21:17;82337.47;;;7.91;33.75
64711;BME280;51139;45.626;6.850;2022-11-13T07:23:43;82336.94;;;7.84;34.97
64711;BME280;51139;45.626;6.850;2022-11-13T07:26:11;82335.38;;;7.81;34.74
64711;BME280;51139;45.626;6.850;2022-11-13T07:28:37;82334.31;;;7.77;36.08
64711;BME280;51139;45.626;6.850;2022-11-13T07:31:03;82332.03;;;7.73;35.53
64711;BME280;51139;45.626;6.850;2022-11-13T07:33:29;82333.25;;;7.72;34.28
64711;BME280;51139;45.626;6.850;2022-11-13T07:35:55;82336.25;;;7.76;34.59
64711;BME280;51139;45.626;6.850;2022-11-13T07:38:21;82327.63;;;7.83;35.33
64711;BME280;51139;45.626;6.850;2022-11-13T07:40:47;82336.22;;;7.84;35.71
64711;BME280;51139;45.626;6.850;2022-11-13T07:43:12;82331.16;;;7.94;35.17
64711;BME280;51139;45.626;6.850;2022-11-13T07:45:38;82331.84;;;7.94;34.65
64711;BME280;51139;45.626;6.850;2022-11-13T07:48:03;82331.16;;;7.94;35.32
64711;BME280;51139;45.626;6.850;2022-11-13T07:50:31;82335.53;;;7.91;36.18
64711;BME280;51139;45.626;6.850;2022-11-13T07:52:58;82330.44;;;7.93;36.04
64711;BME280;51139;45.626;6.850;2022-11-13T07:55:24;82335.91;;;7.87;36.62
64711;BME280;51139;45.626;6.850;2022-11-13T07:57:50;82332.56;;;7.95;36.74
64711;BME280;51139;45.626;6.850;2022-11-13T08:00:16;82333.78;;;7.94;36.90
64711;BME280;51139;45.626;6.850;2022-11-13T08:02:41;82333.78;;;7.94;36.75
64711;BME280;51139;45.626;6.850;2022-11-13T08:05:07;82327.44;;;7.89;36.82
64711;BME280;51139;45.626;6.850;2022-11-13T08:07:32;82330.81;;;7.97;36.46
64711;BME280;51139;45.626;6.850;2022-11-13T08:09:57;82331.31;;;7.96;37.12
64711;BME280;51139;45.626;6.850;2022-11-13T08:12:23;82323.72;;;8.15;36.40
64711;BME280;51139;45.626;6.850;2022-11-13T08:14:48;82325.28;;;8.42;34.72
64711;BME280;51139;45.626;6.850;2022-11-13T08:17:14;82326.84;;;8.45;34.11
64711;BME280;51139;45.626;6.850;2022-11-13T08:19:39;82333.38;;;8.59;33.29
64711;BME280;51139;45.626;6.850;2022-11-13T08:22:04;82323.53;;;8.60;31.22
64711;BME280;51139;45.626;6.850;2022-11-13T08:24:30;82327.94;;;8.42;31.52
64711;BME280;51139;45.626;6.850;2022-11-13T08:26:55;82332.13;;;8.45;32.45
64711;BME280;51139;45.626;6.850;2022-11-13T08:29:21;82330.22;;;8.30;34.37
64711;BME280;51139;45.626;6.850;2022-11-13T08:31:46;82330.59;;;8.26;35.57
64711;BME280;51139;45.626;6.850;2022-11-13T08:34:12;82327.94;;;8.50;32.54
64711;BME280;51139;45.626;6.850;2022-11-13T08:36:37;82330.75;;;8.52;33.59
64711;BME280;51139;45.626;6.850;2022-11-13T08:39:02;82333.75;;;8.56;30.29
64711;BME280;51139;45.626;6.850;2022-11-13T08:41:28;82340.09;;;8.14;31.70
64711;BME280;51139;45.626;6.850;2022-11-13T08:43:53;82334.59;;;8.35;33.27
64711;BME280;51139;45.626;6.850;2022-11-13T08:46:18;82343.25;;;8.51;32.87
64711;BME280;51139;45.626;6.850;2022-11-13T08:48:44;82343.75;;;8.34;33.30
64711;BME280;51139;45.626;6.850;2022-11-13T08:51:09;82336.56;;;8.58;33.98
64711;BME280;51139;45.626;6.850;2022-11-13T08:53:34;82335.16;;;8.49;33.84
64711;BME280;51139;45.626;6.850;2022-11-13T08:56:00;82334.44;;;8.49;33.25
64711;BME280;51139;45.626;6.850;2022-11-13T08:58:26;82333.53;;;8.61;34.57
64711;BME280;51139;45.626;6.850;2022-11-13T09:00:51;82337.06;;;8.41;33.59
64711;BME280;51139;45.626;6.850;2022-11-13T09:03:17;82328.09;;;8.44;33.81
64711;BME280;51139;45.626;6.850;2022-11-13T09:05:42;82332.13;;;8.60;34.47
64711;BME280;51139;45.626;6.850;2022-11-13T09:08:08;82338.66;;;8.59;33.95
64711;BME280;51139;45.626;6.850;2022-11-13T09:10:34;82337.78;;;8.57;34.72
64711;BME280;51139;45.626;6.850;2022-11-13T09:13:02;82348.69;;;8.61;34.21
64711;BME280;51139;45.626;6.850;2022-11-13T09:15:29;82343.75;;;8.57;35.62
64711;BME280;51139;45.626;6.850;2022-11-13T09:17:58;82334.25;;;8.46;34.88
64711;BME280;51139;45.626;6.850;2022-11-13T09:20:25;82344.81;;;8.54;34.00
64711;BME280;51139;45.626;6.850;2022-11-13T09:23:02;82334.63;;;8.51;33.68
64711;BME280;51139;45.626;6.850;2022-11-13T09:25:29;82342.47;;;8.82;33.80
64711;BME280;51139;45.626;6.850;2022-11-13T09:27:59;82337.00;;;8.80;34.63
64711;BME280;51139;45.626;6.850;2022-11-13T09:30:26;82336.81;;;8.85;34.78
64711;BME280;51139;45.626;6.850;2022-11-13T09:32:53;82333.66;;;8.79;34.25
64711;BME280;51139;45.626;6.850;2022-11-13T09:35:20;82340.56;;;8.74;34.36
64711;BME280;51139;45.626;6.850;2022-11-13T09:40:30;82325.31;;;8.98;34.13
64711;BME280;51139;45.626;6.850;2022-11-13T09:42:56;82323.00;;;9.02;33.88
64711;BME280;51139;45.626;6.850;2022-11-13T09:45:22;82313.72;;;9.34;34.09
64711;BME280;51139;45.626;6.850;2022-11-13T09:47:48;82312.75;;;9.14;32.75
64711;BME280;51139;45.626;6.850;2022-11-13T09:50:18;82307.28;;;9.78;33.20
64711;BME280;51139;45.626;6.850;2022-11-13T09:52:44;82305.66;;;10.08;31.39
64711;BME280;51139;45.626;6.850;2022-11-13T09:55:13;82302.56;;;10.20;37.66
64711;BME280;51139;45.626;6.850;2022-11-13T09:57:41;82306.56;;;10.29;37.73
64711;BME280;51139;45.626;6.850;2022-11-13T10:00:18;82300.50;;;10.36;36.64
64711;BME280;51139;45.626;6.850;2022-11-13T10:03:07;82317.41;;;10.41;37.39
64711;BME280;51139;45.626;6.850;2022-11-13T10:11:15;82311.41;;;10.40;36.51
64711;BME280;51139;45.626;6.850;2022-11-13T10:16:31;82300.78;;;10.65;38.11
64711;BME280;51139;45.626;6.850;2022-11-13T10:19:08;82295.84;;;10.79;33.40
64711;BME280;51139;45.626;6.850;2022-11-13T10:21:40;82293.75;;;10.60;36.66
64711;BME280;51139;45.626;6.850;2022-11-13T10:24:15;82292.25;;;10.85;34.25
64711;BME280;51139;45.626;6.850;2022-11-13T10:26:41;82290.22;;;10.93;36.46
64711;BME280;51139;45.626;6.850;2022-11-13T10:29:13;82294.13;;;10.92;35.87
64711;BME280;51139;45.626;6.850;2022-11-13T10:31:43;82284.94;;;10.75;33.25
64711;BME280;51139;45.626;6.850;2022-11-13T10:34:09;82294.59;;;10.63;34.43
64711;BME280;51139;45.626;6.850;2022-11-13T10:39:07;82292.38;;;10.34;33.48
64711;BME280;51139;45.626;6.850;2022-11-13T10:41:45;82285.28;;;9.93;34.26
64711;BME280;51139;45.626;6.850;2022-11-13T10:44:19;82289.31;;;10.20;34.97
64711;BME280;51139;45.626;6.850;2022-11-13T10:46:45;82300.25;;;9.99;33.68
64711;BME280;51139;45.626;6.850;2022-11-13T10:49:24;82282.22;;;9.54;35.91
64711;BME280;51139;45.626;6.850;2022-11-13T10:51:58;82289.72;;;10.16;34.54
64711;BME280;51139;45.626;6.850;2022-11-13T10:54:30;82288.88;;;10.31;34.60
64711;BME280;51139;45.626;6.850;2022-11-13T10:57:13;82279.53;;;9.87;36.35
64711;BME280;51139;45.626;6.850;2022-11-13T10:59:44;82281.31;;;9.85;34.98
64711;BME280;51139;45.626;6.850;2022-11-13T11:02:18;82284.81;;;9.37;36.62
64711;BME280;51139;45.626;6.850;2022-11-13T11:04:44;82288.03;;;9.53;35.56
64711;BME280;51139;45.626;6.850;2022-11-13T11:07:22;82273.09;;;9.73;35.54
64711;BME280;51139;45.626;6.850;2022-11-13T11:09:48;82269.22;;;9.99;34.06
64711;BME280;51139;45.626;6.850;2022-11-13T11:12:20;82269.41;;;10.36;34.26
64711;BME280;51139;45.626;6.850;2022-11-13T11:17:32;82272.94;;;9.96;37.61
64711;BME280;51139;45.626;6.850;2022-11-13T11:22:39;82263.28;;;9.91;35.07
64711;BME280;51139;45.626;6.850;2022-11-13T11:25:16;82265.66;;;9.79;37.56
64711;BME280;51139;45.626;6.850;2022-11-13T11:27:55;82253.09;;;10.05;35.28
64711;BME280;51139;45.626;6.850;2022-11-13T11:30:23;82250.84;;;10.44;36.12
64711;BME280;51139;45.626;6.850;2022-11-13T11:33:17;82249.84;;;9.46;34.91
64711;BME280;51139;45.626;6.850;2022-11-13T11:35:59;82244.41;;;10.30;38.12
64711;BME280;51139;45.626;6.850;2022-11-13T11:39:03;82248.69;;;10.95;37.75
64711;BME280;51139;45.626;6.850;2022-11-13T11:41:40;82238.66;;;10.24;34.16
64711;BME280;51139;45.626;6.850;2022-11-13T11:46:51;82230.50;;;10.47;34.52
64711;BME280;51139;45.626;6.850;2022-11-13T11:49:16;82213.31;;;9.95;34.85
64711;BME280;51139;45.626;6.850;2022-11-13T11:51:56;82211.09;;;10.27;35.23
64711;BME280;51139;45.626;6.850;2022-11-13T11:54:40;82211.00;;;9.99;34.19
64711;BME280;51139;45.626;6.850;2022-11-13T12:00:05;82207.94;;;9.85;35.75
64711;BME280;51139;45.626;6.850;2022-11-13T12:05:43;82210.06;;;10.04;36.05
64711;BME280;51139;45.626;6.850;2022-11-13T12:10:59;82204.41;;;10.26;36.13
64711;BME280;51139;45.626;6.850;2022-11-13T12:13:30;82196.78;;;10.47;34.51
64711;BME280;51139;45.626;6.850;2022-11-13T12:16:01;82205.50;;;10.40;36.82
64711;BME280;51139;45.626;6.850;2022-11-13T12:26:29;82197.59;;;10.85;35.03
64711;BME280;51139;45.626;6.850;2022-11-13T12:34:28;82179.63;;;10.13;34.74
64711;BME280;51139;45.626;6.850;2022-11-13T12:36:55;82192.25;;;10.22;35.44
64711;BME280;51139;45.626;6.850;2022-11-13T12:39:35;82190.22;;;10.48;35.21
64711;BME280;51139;45.626;6.850;2022-11-13T12:42:18;82178.28;;;10.57;34.20
64711;BME280;51139;45.626;6.850;2022-11-13T12:45:12;82182.13;;;10.64;33.96
64711;BME280;51139;45.626;6.850;2022-11-13T12:47:40;82176.38;;;10.85;34.76
64711;BME280;51139;45.626;6.850;2022-11-13T12:50:30;82176.19;;;10.56;33.60
64711;BME280;51139;45.626;6.850;2022-11-13T12:53:05;82167.13;;;10.76;34.10
64711;BME280;51139;45.626;6.850;2022-11-13T12:55:33;82173.56;;;10.20;34.59
64711;BME280;51139;45.626;6.850;2022-11-13T12:58:09;82161.41;;;10.53;34.54
64711;BME280;51139;45.626;6.850;2022-11-13T13:00:38;82158.88;;;10.72;35.20
64711;BME280;51139;45.626;6.850;2022-11-13T13:06:33;82152.13;;;10.89;36.39
64711;BME280;51139;45.626;6.850;2022-11-13T13:12:02;82152.44;;;10.93;34.64
64711;BME280;51139;45.626;6.850;2022-11-13T13:17:34;82140.06;;;10.50;36.10
64711;BME280;51139;45.626;6.850;2022-11-13T13:20:04;82143.38;;;10.96;41.77
64711;BME280;51139;45.626;6.850;2022-11-13T13:22:34;82144.78;;;10.97;41.11
64711;BME280;51139;45.626;6.850;2022-11-13T13:25:03;82141.00;;;10.90;37.46
64711;BME280;51139;45.626;6.850;2022-11-13T13:27:34;82135.03;;;11.00;39.66
64711;BME280;51139;45.626;6.850;2022-11-13T13:30:20;82129.84;;;10.64;35.16
64711;BME280;51139;45.626;6.850;2022-11-13T13:35:56;82134.28;;;10.62;34.97
64711;BME280;51139;45.626;6.850;2022-11-13T13:38:31;82130.97;;;10.44;35.59
64711;BME280;51139;45.626;6.850;2022-11-13T13:47:10;82135.13;;;10.92;41.57
64711;BME280;51139;45.626;6.850;2022-11-13T13:49:39;82125.34;;;10.40;39.69
64711;BME280;51139;45.626;6.850;2022-11-13T13:52:05;82135.63;;;10.80;38.81
64711;BME280;51139;45.626;6.850;2022-11-13T13:54:32;82136.00;;;10.94;38.26
64711;BME280;51139;45.626;6.850;2022-11-13T13:56:58;82132.28;;;10.80;38.28
64711;BME280;51139;45.626;6.850;2022-11-13T13:59:33;82131.44;;;10.77;34.90
64711;BME280;51139;45.626;6.850;2022-11-13T14:02:01;82118.63;;;10.39;38.43
64711;BME280;51139;45.626;6.850;2022-11-13T14:04:28;82114.53;;;10.10;39.20
64711;BME280;51139;45.626;6.850;2022-11-13T14:06:58;82130.19;;;10.16;38.68
64711;BME280;51139;45.626;6.850;2022-11-13T14:09:26;82124.66;;;9.86;36.95
64711;BME280;51139;45.626;6.850;2022-11-13T14:12:20;82127.31;;;9.86;39.53
64711;BME280;51139;45.626;6.850;2022-11-13T14:14:46;82122.63;;;10.12;36.91
64711;BME280;51139;45.626;6.850;2022-11-13T14:17:21;82113.97;;;10.64;37.31
64711;BME280;51139;45.626;6.850;2022-11-13T14:19:54;82117.19;;;10.10;36.66
64711;BME280;51139;45.626;6.850;2022-11-13T14:22:20;82109.56;;;10.14;37.42
64711;BME280;51139;45.626;6.850;2022-11-13T14:24:51;82111.91;;;10.10;36.64
64711;BME280;51139;45.626;6.850;2022-11-13T14:27:20;82108.06;;;10.21;36.96